Time;durP1;ratioP1;P1;durP2;ratioP2;P2;SDS_P1;SDS_P2;PMS_P1;PMS_P2;Temp;Humidity;BMP_temperature;BMP_pressure;BME280_temperature;BME280_humidity;BME280_pressure;Samples;Min_cycle;Max_cycle;Signal;HPM_P1;HPM_P2
2022/03/20 00:02:22;;;;;;;9.77;8.77;;;;;;;;;;5078561;28;20221;-85
2022/03/20 00:04:49;;;;;;;9.63;7.47;;;;;;;;;;5078818;28;20205;-85
2022/03/20 00:07:16;;;;;;;9.10;8.10;;;;;;;;;;5078596;28;20197;-85
2022/03/20 00:09:45;;;;;;;9.13;7.68;;;;;;;;;;5077277;28;20204;-85
2022/03/20 00:12:13;;;;;;;10.10;8.02;;;;;;;;;;5078442;28;20229;-84
2022/03/20 00:14:41;;;;;;;10.25;7.78;;;;;;;;;;5078655;28;20201;-85
2022/03/20 00:17:08;;;;;;;10.38;8.48;;;;;;;;;;5078735;28;20204;-85
2022/03/20 00:19:35;;;;;;;10.38;8.65;;;;;;;;;;5078895;28;20699;-85
2022/03/20 00:22:04;;;;;;;10.48;9.00;;;;;;;;;;5078046;28;20581;-85
2022/03/20 00:24:32;;;;;;;10.18;7.30;;;;;;;;;;5077355;28;20205;-84
2022/03/20 00:27:00;;;;;;;10.73;9.48;;;;;;;;;;5077791;28;20189;-86
2022/03/20 00:29:29;;;;;;;11.07;9.13;;;;;;;;;;5077554;28;20203;-86
2022/03/20 00:31:57;;;;;;;13.98;8.32;;;;;;;;;;5078097;28;20232;-85
2022/03/20 00:34:24;;;;;;;9.63;8.60;;;;;;;;;;5084888;28;20580;-85
2022/03/20 00:36:51;;;;;;;9.50;7.38;;;;;;;;;;5084670;28;20213;-85
2022/03/20 00:39:19;;;;;;;8.88;7.95;;;;;;;;;;5084453;28;20209;-85
2022/03/20 00:41:46;;;;;;;8.32;6.78;;;;;;;;;;5083412;28;20661;-86
2022/03/20 00:44:13;;;;;;;8.90;7.97;;;;;;;;;;5084195;28;20196;-85
2022/03/20 00:46:42;;;;;;;9.07;7.97;;;;;;;;;;5084262;28;20212;-84
2022/03/20 00:49:09;;;;;;;7.00;6.40;;;;;;;;;;5084132;28;20688;-85
2022/03/20 00:51:38;;;;;;;8.73;7.57;;;;;;;;;;5084284;28;20196;-85
2022/03/20 00:54:05;;;;;;;8.02;7.22;;;;;;;;;;5083703;28;20220;-84
2022/03/20 00:56:32;;;;;;;7.63;6.93;;;;;;;;;;5083816;28;20205;-85
2022/03/20 00:59:00;;;;;;;11.77;7.45;;;;;;;;;;5084371;28;20208;-84
2022/03/20 01:01:28;;;;;;;7.80;6.57;;;;;;;;;;5083364;28;20266;-84
2022/03/20 01:03:57;;;;;;;11.10;7.95;;;;;;;;;;5083638;28;20207;-84
2022/03/20 01:06:24;;;;;;;7.03;6.32;;;;;;;;;;5083755;28;20549;-85
2022/03/20 01:08:52;;;;;;;7.30;6.55;;;;;;;;;;5081753;28;20684;-84
2022/03/20 01:11:20;;;;;;;6.78;6.18;;;;;;;;;;5082744;28;20630;-85
2022/03/20 01:13:48;;;;;;;8.13;7.35;;;;;;;;;;5083634;28;20220;-84
2022/03/20 01:16:15;;;;;;;7.15;6.45;;;;;;;;;;5083298;28;20200;-84
2022/03/20 01:18:42;;;;;;;9.40;7.70;;;;;;;;;;5083229;28;20203;-85
2022/03/20 01:21:12;;;;;;;8.13;7.32;;;;;;;;;;5083017;28;20250;-85
2022/03/20 01:23:39;;;;;;;9.40;8.27;;;;;;;;;;5083539;28;20583;-84
2022/03/20 01:26:07;;;;;;;8.13;6.53;;;;;;;;;;5082783;28;20193;-84
2022/03/20 01:28:34;;;;;;;8.40;7.03;;;;;;;;;;5082933;28;20255;-85
2022/03/20 01:31:02;;;;;;;8.00;6.97;;;;;;;;;;5081390;28;20196;-84
2022/03/20 01:33:29;;;;;;;6.07;5.47;;;;;;;;;;5081300;28;20245;-85
2022/03/20 01:35:56;;;;;;;6.97;5.88;;;;;;;;;;5083435;28;20189;-85
2022/03/20 01:38:25;;;;;;;9.07;8.18;;;;;;;;;;5083211;28;20216;-85
2022/03/20 01:40:52;;;;;;;6.97;5.65;;;;;;;;;;5082170;28;20564;-85
2022/03/20 01:43:20;;;;;;;6.55;5.95;;;;;;;;;;5082551;28;20224;-85
2022/03/20 01:45:47;;;;;;;7.43;6.72;;;;;;;;;;5078379;28;20207;-85
2022/03/20 01:48:14;;;;;;;7.38;6.57;;;;;;;;;;5080095;28;20211;-85
2022/03/20 01:50:44;;;;;;;7.85;7.00;;;;;;;;;;5078609;28;20215;-85
2022/03/20 01:53:11;;;;;;;5.93;5.43;;;;;;;;;;5078178;28;20232;-84
2022/03/20 01:55:40;;;;;;;7.05;6.35;;;;;;;;;;5079393;28;20201;-85
2022/03/20 01:58:07;;;;;;;7.70;6.88;;;;;;;;;;5079795;28;20189;-84
2022/03/20 02:00:35;;;;;;;7.03;6.32;;;;;;;;;;5078242;28;20193;-85
2022/03/20 02:03:02;;;;;;;8.13;7.07;;;;;;;;;;5077954;28;20216;-84
2022/03/20 02:05:30;;;;;;;6.68;6.07;;;;;;;;;;5080184;28;20204;-84
2022/03/20 02:08:00;;;;;;;6.10;5.50;;;;;;;;;;5079992;28;20200;-85
2022/03/20 02:10:35;;;;;;;6.93;6.22;;;;;;;;;;5079360;28;20265;-85
2022/03/20 02:13:04;;;;;;;7.18;6.40;;;;;;;;;;5079143;28;20323;-85
2022/03/20 02:15:32;;;;;;;7.07;6.38;;;;;;;;;;5084099;28;20205;-84
2022/03/20 02:17:59;;;;;;;11.13;7.68;;;;;;;;;;5092318;28;20204;-84
2022/03/20 02:20:29;;;;;;;7.82;7.13;;;;;;;;;;5091330;28;20200;-86
2022/03/20 02:22:58;;;;;;;7.45;6.68;;;;;;;;;;5091388;28;20247;-85
2022/03/20 02:25:26;;;;;;;7.78;6.45;;;;;;;;;;5086743;28;20221;-86
2022/03/20 02:27:53;;;;;;;7.78;7.00;;;;;;;;;;5085293;28;20201;-85
2022/03/20 02:30:22;;;;;;;9.50;7.50;;;;;;;;;;5084173;28;20568;-85
2022/03/20 02:32:52;;;;;;;10.75;7.45;;;;;;;;;;5083651;28;20292;-85
2022/03/20 02:35:20;;;;;;;7.68;6.85;;;;;;;;;;5084510;28;20200;-85
2022/03/20 02:37:50;;;;;;;9.68;8.38;;;;;;;;;;5083804;28;20208;-85
2022/03/20 02:40:22;;;;;;;8.75;7.53;;;;;;;;;;5084039;28;20200;-85
2022/03/20 02:42:53;;;;;;;7.60;6.53;;;;;;;;;;5084296;28;20220;-85
2022/03/20 02:45:22;;;;;;;7.53;5.90;;;;;;;;;;5083504;28;20266;-85
2022/03/20 02:47:52;;;;;;;7.60;6.07;;;;;;;;;;5083509;28;20700;-84
2022/03/20 02:50:22;;;;;;;10.35;8.00;;;;;;;;;;5083597;28;20208;-86
2022/03/20 02:52:52;;;;;;;9.88;7.65;;;;;;;;;;5082979;28;20724;-85
2022/03/20 02:55:24;;;;;;;14.05;8.77;;;;;;;;;;5083127;28;20212;-85
2022/03/20 02:57:54;;;;;;;11.00;9.68;;;;;;;;;;5082773;28;20212;-85
2022/03/20 03:00:25;;;;;;;13.05;9.82;;;;;;;;;;5081860;28;20197;-85
2022/03/20 03:02:55;;;;;;;13.30;8.73;;;;;;;;;;5082072;28;20221;-85
2022/03/20 03:05:25;;;;;;;8.93;7.13;;;;;;;;;;5082277;28;20197;-85
2022/03/20 03:13:26;;;;;;;9.13;6.13;;;;;;;;;;5078853;28;20654;-85
2022/03/20 03:15:55;;;;;;;6.30;5.68;;;;;;;;;;5080905;28;20200;-84
2022/03/20 03:18:23;;;;;;;7.88;6.07;;;;;;;;;;5080572;28;20193;-84
2022/03/20 03:20:51;;;;;;;6.75;5.90;;;;;;;;;;5085216;28;20204;-84
2022/03/20 03:23:20;;;;;;;8.82;7.50;;;;;;;;;;5094469;28;20215;-85
2022/03/20 03:25:49;;;;;;;8.98;7.50;;;;;;;;;;5095424;28;20181;-85
2022/03/20 03:28:16;;;;;;;9.32;7.03;;;;;;;;;;5094981;28;20215;-85
2022/03/20 03:30:46;;;;;;;7.38;6.43;;;;;;;;;;5095486;28;20197;-84
2022/03/20 03:33:14;;;;;;;9.43;6.95;;;;;;;;;;5094737;28;20217;-84
2022/03/20 03:35:47;;;;;;;7.82;7.03;;;;;;;;;;5073219;28;20193;-86
2022/03/20 03:38:16;;;;;;;7.72;6.93;;;;;;;;;;5065080;28;20210;-85
2022/03/20 03:40:45;;;;;;;7.45;6.43;;;;;;;;;;5064673;28;20210;-84
2022/03/20 03:43:15;;;;;;;6.70;6.00;;;;;;;;;;5063583;28;20724;-85
2022/03/20 03:45:43;;;;;;;7.78;6.43;;;;;;;;;;5063625;28;20194;-84
2022/03/20 03:48:11;;;;;;;7.13;6.22;;;;;;;;;;5063566;28;20288;-84
2022/03/20 03:50:41;;;;;;;7.05;5.95;;;;;;;;;;5062386;28;20205;-85
2022/03/20 03:53:09;;;;;;;7.05;5.40;;;;;;;;;;5062712;28;20249;-85
2022/03/20 03:55:37;;;;;;;7.28;6.50;;;;;;;;;;5064795;28;20247;-85
2022/03/20 03:58:05;;;;;;;7.45;6.65;;;;;;;;;;5074346;28;20205;-84
2022/03/20 04:00:34;;;;;;;6.30;5.70;;;;;;;;;;5074389;28;20292;-85
2022/03/20 04:03:02;;;;;;;6.03;5.53;;;;;;;;;;5074392;28;20229;-85
2022/03/20 04:05:31;;;;;;;6.13;5.53;;;;;;;;;;5092435;28;20215;-84
2022/03/20 04:07:58;;;;;;;9.52;6.68;;;;;;;;;;5085748;28;20200;-85
2022/03/20 04:10:26;;;;;;;8.07;6.78;;;;;;;;;;5082816;28;20227;-84
2022/03/20 04:12:54;;;;;;;14.07;8.43;;;;;;;;;;5082209;28;20221;-85
2022/03/20 04:15:24;;;;;;;8.73;6.90;;;;;;;;;;5082027;28;20228;-85
2022/03/20 04:17:53;;;;;;;6.50;5.90;;;;;;;;;;5082069;28;20208;-85
2022/03/20 04:20:21;;;;;;;7.57;6.38;;;;;;;;;;5082240;28;20243;-85
2022/03/20 04:25:34;;;;;;;6.72;6.03;;;;;;;;;;5082571;28;20200;-85
2022/03/20 04:28:02;;;;;;;7.18;5.70;;;;;;;;;;5082457;28;20205;-85
2022/03/20 04:30:32;;;;;;;8.32;6.18;;;;;;;;;;5082179;28;20237;-85
2022/03/20 04:33:01;;;;;;;8.32;7.40;;;;;;;;;;5081683;28;20217;-86
2022/03/20 04:35:29;;;;;;;7.97;7.13;;;;;;;;;;5082243;28;20224;-85
2022/03/20 04:37:57;;;;;;;10.13;6.78;;;;;;;;;;5082155;28;20276;-85
2022/03/20 04:40:25;;;;;;;6.90;6.20;;;;;;;;;;5080863;28;20189;-84
2022/03/20 04:42:52;;;;;;;9.85;8.85;;;;;;;;;;5080513;28;20224;-85
2022/03/20 04:45:19;;;;;;;8.02;7.20;;;;;;;;;;5081180;28;20632;-85
2022/03/20 04:58:48;;;;;;;10.07;8.85;;;;;;;;;;5081570;28;20192;-86
2022/03/20 05:01:15;;;;;;;9.48;8.43;;;;;;;;;;5080728;28;20728;-85
2022/03/20 05:03:43;;;;;;;10.32;8.60;;;;;;;;;;5080202;28;20224;-85
2022/03/20 05:06:12;;;;;;;10.50;8.55;;;;;;;;;;5081544;28;20258;-85
2022/03/20 05:08:39;;;;;;;10.05;8.48;;;;;;;;;;5080274;28;20657;-84
2022/03/20 05:13:52;;;;;;;12.57;9.95;;;;;;;;;;5080257;28;20223;-85
2022/03/20 05:16:19;;;;;;;11.05;9.75;;;;;;;;;;5080725;28;20212;-85
2022/03/20 05:18:47;;;;;;;13.35;12.05;;;;;;;;;;5082017;28;20197;-85
2022/03/20 05:21:15;;;;;;;12.88;10.52;;;;;;;;;;5084295;28;20231;-85
2022/03/20 05:23:42;;;;;;;12.35;10.68;;;;;;;;;;5083205;28;20221;-85
2022/03/20 05:26:10;;;;;;;14.38;11.60;;;;;;;;;;5083651;28;20645;-85
2022/03/20 05:28:39;;;;;;;15.00;12.10;;;;;;;;;;5083511;28;20262;-85
2022/03/20 05:31:06;;;;;;;16.90;12.00;;;;;;;;;;5084007;28;20193;-84
2022/03/20 05:33:34;;;;;;;12.38;10.75;;;;;;;;;;5080217;28;20228;-85
2022/03/20 05:36:03;;;;;;;14.85;11.32;;;;;;;;;;5064405;28;20635;-84
2022/03/20 05:38:32;;;;;;;11.55;10.35;;;;;;;;;;5063993;28;20622;-85
2022/03/20 05:43:40;;;;;;;15.23;11.90;;;;;;;;;;5062850;28;20217;-84
2022/03/20 05:46:08;;;;;;;14.80;13.15;;;;;;;;;;5062845;28;20193;-85
2022/03/20 05:48:37;;;;;;;15.02;11.10;;;;;;;;;;5057181;28;20208;-77
2022/03/20 05:51:05;;;;;;;12.95;11.40;;;;;;;;;;5056616;28;20208;-78
2022/03/20 05:53:33;;;;;;;12.30;11.10;;;;;;;;;;5055309;28;20786;-77
2022/03/20 05:58:45;;;;;;;16.95;13.55;;;;;;;;;;5055822;28;20236;-77
2022/03/20 06:01:13;;;;;;;17.63;14.30;;;;;;;;;;5056091;28;20205;-78
2022/03/20 06:03:40;;;;;;;18.02;12.70;;;;;;;;;;5058813;28;20229;-77
2022/03/20 06:06:08;;;;;;;16.88;13.80;;;;;;;;;;5075676;28;20287;-78
2022/03/20 06:08:38;;;;;;;17.25;14.07;;;;;;;;;;5075953;28;20212;-78
2022/03/20 06:11:05;;;;;;;16.25;13.25;;;;;;;;;;5075722;28;20208;-78
2022/03/20 06:13:38;;;;;;;18.17;13.80;;;;;;;;;;5075745;28;20274;-77
2022/03/20 06:16:06;;;;;;;18.40;14.38;;;;;;;;;;5075350;28;20713;-77
2022/03/20 06:18:34;;;;;;;16.15;12.65;;;;;;;;;;5075141;28;20583;-77
2022/03/20 06:21:01;;;;;;;16.80;12.98;;;;;;;;;;5076339;28;20259;-78
2022/03/20 06:23:29;;;;;;;17.67;13.88;;;;;;;;;;5075831;28;20221;-78
2022/03/20 06:25:57;;;;;;;15.38;12.43;;;;;;;;;;5076254;28;20296;-78
2022/03/20 06:28:26;;;;;;;13.27;11.88;;;;;;;;;;5075709;28;20250;-77
2022/03/20 06:30:53;;;;;;;14.77;12.43;;;;;;;;;;5075328;28;20630;-78
2022/03/20 06:33:20;;;;;;;14.55;11.90;;;;;;;;;;5075165;28;20228;-78
2022/03/20 06:35:47;;;;;;;18.42;14.73;;;;;;;;;;5075470;28;20716;-77
2022/03/20 06:38:15;;;;;;;18.85;15.10;;;;;;;;;;5075772;28;20621;-78
2022/03/20 06:40:42;;;;;;;19.42;13.60;;;;;;;;;;5075309;28;20204;-78
2022/03/20 06:43:11;;;;;;;15.73;13.15;;;;;;;;;;5074872;28;20300;-77
2022/03/20 06:45:39;;;;;;;17.23;12.80;;;;;;;;;;5075370;28;20200;-78
2022/03/20 06:48:06;;;;;;;17.50;14.05;;;;;;;;;;5075480;28;20205;-78
2022/03/20 06:50:33;;;;;;;14.93;12.80;;;;;;;;;;5075253;28;20197;-78
2022/03/20 06:53:04;;;;;;;16.73;14.18;;;;;;;;;;5074943;28;20220;-78
2022/03/20 06:55:32;;;;;;;14.45;12.80;;;;;;;;;;5075335;28;20602;-78
2022/03/20 06:58:00;;;;;;;15.65;13.43;;;;;;;;;;5075190;28;20569;-78
2022/03/20 07:00:29;;;;;;;15.68;12.88;;;;;;;;;;5074947;28;20240;-79
2022/03/20 07:02:58;;;;;;;17.67;13.68;;;;;;;;;;5074883;28;20227;-78
2022/03/20 07:05:26;;;;;;;16.10;13.98;;;;;;;;;;5075232;28;20208;-79
2022/03/20 07:07:53;;;;;;;12.57;10.15;;;;;;;;;;5074744;28;20197;-79
2022/03/20 07:10:23;;;;;;;16.67;12.68;;;;;;;;;;5078316;28;20625;-79
2022/03/20 07:12:50;;;;;;;14.48;11.95;;;;;;;;;;5076034;28;20216;-79
2022/03/20 07:15:18;;;;;;;14.90;13.18;;;;;;;;;;5079162;28;20247;-79
2022/03/20 07:17:48;;;;;;;16.48;12.63;;;;;;;;;;5076450;28;20288;-78
2022/03/20 07:20:16;;;;;;;14.35;11.98;;;;;;;;;;5074961;28;20330;-78
2022/03/20 07:22:44;;;;;;;14.27;12.68;;;;;;;;;;5074843;28;20221;-78
2022/03/20 07:30:42;;;;;;;18.60;14.10;;;;;;;;;;5074427;28;20787;-77
2022/03/20 07:33:11;;;;;;;18.02;14.18;;;;;;;;;;5072906;28;20229;-78
2022/03/20 07:35:40;;;;;;;19.27;13.82;;;;;;;;;;5073953;28;20319;-78
2022/03/20 07:38:07;;;;;;;14.57;12.15;;;;;;;;;;5074008;28;20208;-79
2022/03/20 07:40:35;;;;;;;18.27;14.77;;;;;;;;;;5073932;28;20262;-79
2022/03/20 07:43:02;;;;;;;14.80;13.00;;;;;;;;;;5072996;28;20232;-79
2022/03/20 07:45:30;;;;;;;15.05;13.23;;;;;;;;;;5074439;28;20213;-79
2022/03/20 07:47:57;;;;;;;16.98;15.15;;;;;;;;;;5074103;28;20209;-78
2022/03/20 07:50:26;;;;;;;21.23;14.82;;;;;;;;;;5073399;28;20617;-79
2022/03/20 07:52:53;;;;;;;16.65;13.73;;;;;;;;;;5073751;28;20278;-78
2022/03/20 07:55:21;;;;;;;13.95;12.38;;;;;;;;;;5073428;28;20216;-80
2022/03/20 07:57:48;;;;;;;15.52;13.18;;;;;;;;;;5073918;28;20233;-80
2022/03/20 08:00:17;;;;;;;16.33;13.93;;;;;;;;;;5074745;28;20254;-79
2022/03/20 08:02:45;;;;;;;14.68;12.48;;;;;;;;;;5074166;28;20235;-79
2022/03/20 08:05:12;;;;;;;14.48;12.77;;;;;;;;;;5078310;28;20222;-79
2022/03/20 08:07:41;;;;;;;15.02;12.95;;;;;;;;;;5074029;28;20232;-79
2022/03/20 08:10:09;;;;;;;15.30;13.70;;;;;;;;;;5072597;28;20209;-79
2022/03/20 08:12:37;;;;;;;15.70;13.63;;;;;;;;;;5073361;28;20221;-79
2022/03/20 08:15:06;;;;;;;15.90;14.18;;;;;;;;;;5072782;28;20224;-80
2022/03/20 08:17:42;;;;;;;15.25;13.65;;;;;;;;;;5073454;28;20220;-79
2022/03/20 08:20:11;;;;;;;15.55;13.95;;;;;;;;;;5073012;28;20211;-80
2022/03/20 08:22:40;;;;;;;17.10;14.70;;;;;;;;;;5072134;28;20719;-80
2022/03/20 08:25:10;;;;;;;16.10;13.80;;;;;;;;;;5073496;28;20231;-79
2022/03/20 08:27:44;;;;;;;16.73;14.90;;;;;;;;;;5073481;28;20211;-80
2022/03/20 08:30:13;;;;;;;15.00;13.05;;;;;;;;;;5066435;28;20701;-80
2022/03/20 08:32:40;;;;;;;15.45;13.68;;;;;;;;;;5066560;28;20608;-80
2022/03/20 08:35:13;;;;;;;15.85;13.90;;;;;;;;;;5072638;28;20231;-80
2022/03/20 08:37:43;;;;;;;16.42;14.65;;;;;;;;;;5067321;28;20225;-81
2022/03/20 08:40:15;;;;;;;16.60;14.88;;;;;;;;;;5072743;28;20205;-80
2022/03/20 08:42:44;;;;;;;14.75;12.90;;;;;;;;;;5072795;28;20225;-80
2022/03/20 08:45:12;;;;;;;16.80;14.15;;;;;;;;;;5072885;28;20233;-79
2022/03/20 08:47:40;;;;;;;15.70;12.65;;;;;;;;;;5072854;28;20300;-79
2022/03/20 08:50:09;;;;;;;12.73;11.43;;;;;;;;;;5072589;28;20228;-80
2022/03/20 08:52:37;;;;;;;15.93;13.60;;;;;;;;;;5071564;28;20225;-79
2022/03/20 08:55:10;;;;;;;14.05;12.45;;;;;;;;;;5075785;28;20262;-80
2022/03/20 08:57:39;;;;;;;15.18;12.80;;;;;;;;;;5076151;28;20235;-80
2022/03/20 09:00:09;;;;;;;14.23;12.70;;;;;;;;;;5076181;28;20209;-80
2022/03/20 09:02:37;;;;;;;14.70;12.45;;;;;;;;;;5076973;28;20277;-80
2022/03/20 09:05:06;;;;;;;16.23;14.57;;;;;;;;;;5080730;28;20227;-80
2022/03/20 09:07:33;;;;;;;17.35;14.93;;;;;;;;;;5076162;28;20209;-79
2022/03/20 09:10:00;;;;;;;17.63;14.60;;;;;;;;;;5080082;28;20228;-80
2022/03/20 09:12:30;;;;;;;17.83;13.02;;;;;;;;;;5074970;28;20223;-80
2022/03/20 09:14:57;;;;;;;16.40;14.35;;;;;;;;;;5074833;28;20211;-80
2022/03/20 09:20:10;;;;;;;15.48;13.63;;;;;;;;;;5077026;28;20290;-81
2022/03/20 09:22:37;;;;;;;15.32;13.75;;;;;;;;;;5081295;28;20290;-81
2022/03/20 09:25:05;;;;;;;14.07;12.52;;;;;;;;;;5076054;28;20574;-82
2022/03/20 09:27:34;;;;;;;16.52;13.27;;;;;;;;;;5076594;28;20197;-80
2022/03/20 09:30:02;;;;;;;17.08;13.15;;;;;;;;;;5076482;28;20587;-81
2022/03/20 09:32:29;;;;;;;13.85;12.38;;;;;;;;;;5075745;28;20622;-81
2022/03/20 09:34:57;;;;;;;15.15;12.70;;;;;;;;;;5075843;28;20208;-81
2022/03/20 09:37:24;;;;;;;14.13;12.48;;;;;;;;;;5076221;28;20220;-81
2022/03/20 09:39:52;;;;;;;15.95;13.20;;;;;;;;;;5076170;28;20212;-79
2022/03/20 09:42:20;;;;;;;15.05;13.25;;;;;;;;;;5075839;28;20232;-81
2022/03/20 09:44:53;;;;;;;14.73;13.07;;;;;;;;;;5075787;28;20212;-81
2022/03/20 09:47:23;;;;;;;13.93;12.50;;;;;;;;;;5070260;28;20223;-82
2022/03/20 09:49:51;;;;;;;16.58;14.82;;;;;;;;;;5076461;28;20197;-81
2022/03/20 09:52:18;;;;;;;15.63;13.27;;;;;;;;;;5075024;28;20225;-81
2022/03/20 09:54:46;;;;;;;16.77;13.55;;;;;;;;;;5076139;28;20744;-82
2022/03/20 09:57:13;;;;;;;12.45;11.15;;;;;;;;;;5077986;28;20225;-82
2022/03/20 09:59:42;;;;;;;14.98;13.15;;;;;;;;;;5076348;28;20208;-79
2022/03/20 10:02:12;;;;;;;14.85;13.35;;;;;;;;;;5074538;28;20716;-80
2022/03/20 10:04:58;;;;;;;13.43;11.50;;;;;;;;;;5075155;28;20201;-82
2022/03/20 10:07:28;;;;;;;14.48;13.02;;;;;;;;;;5076174;28;20216;-82
2022/03/20 10:10:14;;;;;;;13.98;12.43;;;;;;;;;;5076346;28;20291;-81
2022/03/20 10:12:44;;;;;;;14.13;12.60;;;;;;;;;;5075965;28;20225;-80
2022/03/20 10:15:28;;;;;;;14.88;13.38;;;;;;;;;;5076363;28;20261;-81
2022/03/20 10:18:15;;;;;;;16.08;13.88;;;;;;;;;;5072773;28;20308;-80
2022/03/20 10:20:46;;;;;;;15.52;12.32;;;;;;;;;;5079595;28;20384;-80
2022/03/20 10:23:32;;;;;;;14.35;12.85;;;;;;;;;;5078232;28;20594;-80
2022/03/20 10:26:03;;;;;;;16.70;13.52;;;;;;;;;;5070530;28;20250;-79
2022/03/20 10:28:36;;;;;;;13.63;11.98;;;;;;;;;;5074331;28;20197;-80
2022/03/20 10:31:06;;;;;;;12.95;11.65;;;;;;;;;;5074754;28;20209;-79
2022/03/20 10:33:38;;;;;;;13.75;11.98;;;;;;;;;;5074546;28;20229;-80
2022/03/20 10:36:14;;;;;;;14.00;12.25;;;;;;;;;;5080624;28;20193;-80
2022/03/20 10:38:43;;;;;;;14.57;13.07;;;;;;;;;;5074830;28;20224;-80
2022/03/20 10:41:26;;;;;;;13.63;12.32;;;;;;;;;;5075174;28;20208;-80
2022/03/20 10:43:56;;;;;;;14.50;13.00;;;;;;;;;;5068684;28;20221;-80
2022/03/20 10:46:26;;;;;;;14.80;13.27;;;;;;;;;;5075170;28;20212;-79
2022/03/20 10:48:57;;;;;;;14.50;13.07;;;;;;;;;;5074069;28;20201;-80
2022/03/20 10:51:41;;;;;;;14.07;12.57;;;;;;;;;;5075187;28;20209;-80
2022/03/20 10:54:11;;;;;;;12.98;11.40;;;;;;;;;;5074899;28;20235;-79
2022/03/20 10:56:51;;;;;;;15.40;13.10;;;;;;;;;;5074917;28;20205;-80
2022/03/20 10:59:19;;;;;;;14.10;12.60;;;;;;;;;;5077201;28;20700;-79
2022/03/20 11:01:47;;;;;;;13.27;11.68;;;;;;;;;;5088144;28;20411;-81
2022/03/20 11:04:18;;;;;;;14.73;13.13;;;;;;;;;;5087058;28;20232;-80
2022/03/20 11:06:48;;;;;;;13.90;12.40;;;;;;;;;;5091289;28;20212;-80
2022/03/20 11:09:16;;;;;;;13.30;11.75;;;;;;;;;;5080246;28;20291;-81
2022/03/20 11:11:49;;;;;;;13.98;12.48;;;;;;;;;;5077622;28;20204;-81
2022/03/20 11:14:19;;;;;;;13.40;11.27;;;;;;;;;;5070624;28;20217;-82
2022/03/20 11:16:49;;;;;;;14.38;12.02;;;;;;;;;;5075057;28;20193;-80
2022/03/20 11:19:22;;;;;;;12.82;11.52;;;;;;;;;;5075143;28;20731;-81
2022/03/20 11:21:53;;;;;;;12.25;10.88;;;;;;;;;;5074891;28;20236;-80
2022/03/20 11:24:21;;;;;;;12.95;11.68;;;;;;;;;;5074397;28;20213;-80
2022/03/20 11:26:51;;;;;;;14.40;12.32;;;;;;;;;;5074562;28;20212;-81
2022/03/20 11:29:21;;;;;;;13.85;12.40;;;;;;;;;;5073499;28;20205;-80
2022/03/20 11:31:49;;;;;;;13.90;11.80;;;;;;;;;;5073772;28;20843;-80
2022/03/20 11:34:19;;;;;;;12.88;11.57;;;;;;;;;;5073974;28;21015;-81
2022/03/20 11:37:08;;;;;;;12.27;10.63;;;;;;;;;;5074243;28;20231;-80
2022/03/20 11:39:37;;;;;;;15.95;11.50;;;;;;;;;;5073388;28;20236;-81
2022/03/20 11:42:25;;;;;;;14.27;12.75;;;;;;;;;;5073617;28;20228;-80
2022/03/20 11:45:10;;;;;;;15.30;12.48;;;;;;;;;;5074012;28;20209;-80
2022/03/20 11:47:39;;;;;;;13.65;11.32;;;;;;;;;;5073671;28;20340;-80
2022/03/20 11:50:20;;;;;;;17.27;12.32;;;;;;;;;;5073292;28;20200;-81
2022/03/20 11:53:00;;;;;;;12.73;11.43;;;;;;;;;;5067497;28;20227;-80
2022/03/20 11:55:34;;;;;;;14.43;12.43;;;;;;;;;;5073930;28;20267;-81
2022/03/20 11:58:05;;;;;;;15.48;13.13;;;;;;;;;;5073347;28;20204;-80
2022/03/20 12:00:34;;;;;;;13.25;11.85;;;;;;;;;;5073621;28;20205;-80
2022/03/20 12:03:53;;;;;;;16.27;13.32;;;;;;;;;;5073495;28;20723;-80
2022/03/20 12:07:10;;;;;;;12.30;10.95;;;;;;;;;;5009038;28;20629;-80
2022/03/20 12:10:03;;;;;;;13.40;11.55;;;;;;;;;;5024331;28;20224;-80
2022/03/20 12:13:13;;;;;;;13.13;11.68;;;;;;;;;;5068323;28;20256;-80
2022/03/20 12:15:44;;;;;;;14.10;12.20;;;;;;;;;;5059198;28;20204;-80
2022/03/20 12:18:12;;;;;;;14.48;12.82;;;;;;;;;;5073858;28;20215;-80
2022/03/20 12:21:05;;;;;;;14.10;12.60;;;;;;;;;;5074321;28;20216;-79
2022/03/20 12:23:40;;;;;;;13.85;12.13;;;;;;;;;;5087586;28;20221;-80
2022/03/20 12:26:41;;;;;;;13.05;11.68;;;;;;;;;;5087130;28;20208;-80
2022/03/20 12:29:35;;;;;;;14.38;12.52;;;;;;;;;;5084780;28;20201;-79
2022/03/20 12:32:05;;;;;;;14.75;11.80;;;;;;;;;;5090222;28;20239;-81
2022/03/20 12:34:33;;;;;;;14.18;11.25;;;;;;;;;;5080764;28;20208;-79
2022/03/20 12:37:37;;;;;;;13.90;12.02;;;;;;;;;;5075719;28;20235;-80
2022/03/20 12:40:16;;;;;;;11.98;10.82;;;;;;;;;;5071663;28;20228;-80
2022/03/20 12:42:54;;;;;;;12.40;11.07;;;;;;;;;;5074548;28;20225;-79
2022/03/20 12:45:22;;;;;;;14.07;12.68;;;;;;;;;;5074760;28;20201;-81
2022/03/20 12:47:57;;;;;;;13.30;11.80;;;;;;;;;;5073306;28;20212;-80
2022/03/20 12:50:27;;;;;;;15.30;13.27;;;;;;;;;;5076658;28;20212;-80
2022/03/20 12:53:03;;;;;;;14.10;12.43;;;;;;;;;;5083226;28;20225;-79
2022/03/20 12:55:32;;;;;;;13.50;12.07;;;;;;;;;;5083195;28;20213;-79
2022/03/20 12:58:00;;;;;;;13.75;11.65;;;;;;;;;;5084201;28;20217;-79
2022/03/20 13:00:32;;;;;;;13.55;12.15;;;;;;;;;;5084394;28;20236;-80
2022/03/20 13:03:07;;;;;;;13.55;11.93;;;;;;;;;;5073524;28;20648;-81
2022/03/20 13:05:38;;;;;;;13.52;11.63;;;;;;;;;;5073452;28;20250;-80
2022/03/20 13:08:06;;;;;;;13.13;11.73;;;;;;;;;;5073660;28;20626;-80
2022/03/20 13:10:37;;;;;;;13.93;12.52;;;;;;;;;;5073375;28;20201;-80
2022/03/20 13:13:06;;;;;;;13.95;12.55;;;;;;;;;;5073562;28;20593;-79
2022/03/20 13:15:35;;;;;;;14.88;12.32;;;;;;;;;;5072956;28;20209;-80
2022/03/20 13:18:04;;;;;;;16.55;12.48;;;;;;;;;;5074350;28;20205;-81
2022/03/20 13:20:33;;;;;;;14.18;12.52;;;;;;;;;;5073377;28;20240;-80
2022/03/20 13:23:07;;;;;;;12.73;11.38;;;;;;;;;;5073955;28;20232;-81
2022/03/20 13:25:40;;;;;;;12.27;9.88;;;;;;;;;;5068026;28;20228;-81
2022/03/20 13:28:08;;;;;;;11.60;9.65;;;;;;;;;;5076383;28;20197;-80
2022/03/20 13:30:38;;;;;;;12.10;10.68;;;;;;;;;;5073793;28;20204;-80
2022/03/20 13:33:06;;;;;;;11.93;10.73;;;;;;;;;;5076870;28;20267;-81
2022/03/20 13:35:34;;;;;;;14.30;10.93;;;;;;;;;;5072376;28;20209;-79
2022/03/20 13:38:03;;;;;;;13.02;11.57;;;;;;;;;;5071838;28;20308;-79
2022/03/20 13:40:34;;;;;;;15.77;13.10;;;;;;;;;;5074705;28;20282;-77
2022/03/20 13:43:02;;;;;;;14.23;11.85;;;;;;;;;;5077141;28;20224;-78
2022/03/20 13:45:38;;;;;;;12.63;11.15;;;;;;;;;;5081670;28;20197;-82
2022/03/20 13:48:07;;;;;;;13.73;12.32;;;;;;;;;;5076726;28;20561;-79
2022/03/20 13:50:34;;;;;;;13.93;12.15;;;;;;;;;;5075375;28;20205;-80
2022/03/20 13:53:01;;;;;;;15.57;12.85;;;;;;;;;;5075912;28;20278;-78
2022/03/20 13:55:38;;;;;;;13.80;12.38;;;;;;;;;;5076088;28;20215;-79
2022/03/20 13:58:07;;;;;;;12.45;11.07;;;;;;;;;;5076488;28;20211;-80
2022/03/20 14:00:37;;;;;;;10.70;9.45;;;;;;;;;;5076632;28;20693;-80
2022/03/20 14:03:07;;;;;;;13.45;11.48;;;;;;;;;;5075773;28;20232;-79
2022/03/20 14:05:35;;;;;;;13.30;11.60;;;;;;;;;;5075775;28;20212;-79
2022/03/20 14:08:08;;;;;;;14.15;12.25;;;;;;;;;;5075986;28;20589;-80
2022/03/20 14:10:47;;;;;;;11.32;10.23;;;;;;;;;;5076056;28;20212;-79
2022/03/20 14:13:23;;;;;;;11.55;10.40;;;;;;;;;;5075736;28;20347;-79
2022/03/20 14:15:59;;;;;;;11.68;10.48;;;;;;;;;;5075174;28;20196;-78
2022/03/20 14:18:27;;;;;;;11.32;10.00;;;;;;;;;;5070416;28;20204;-79
2022/03/20 14:21:10;;;;;;;13.18;11.77;;;;;;;;;;5076310;28;20226;-79
2022/03/20 14:23:46;;;;;;;12.55;10.05;;;;;;;;;;5075324;28;20228;-79
2022/03/20 14:26:20;;;;;;;13.10;11.15;;;;;;;;;;5075253;28;20215;-79
2022/03/20 14:28:47;;;;;;;10.80;9.73;;;;;;;;;;5075701;28;20244;-80
2022/03/20 14:39:45;;;;;;;12.05;10.77;;;;;;;;;;5075070;28;20212;-79
2022/03/20 14:42:30;;;;;;;13.07;11.60;;;;;;;;;;5068275;28;20315;-79
2022/03/20 14:44:57;;;;;;;13.30;11.38;;;;;;;;;;5072764;28;20636;-78
2022/03/20 14:47:26;;;;;;;12.20;10.93;;;;;;;;;;5074694;28;20258;-80
2022/03/20 14:49:55;;;;;;;11.13;10.02;;;;;;;;;;5075308;28;20209;-80
2022/03/20 14:52:23;;;;;;;10.40;9.20;;;;;;;;;;5074107;28;20574;-79
2022/03/20 14:54:52;;;;;;;9.20;8.27;;;;;;;;;;5074565;28;20216;-79
2022/03/20 14:57:20;;;;;;;10.13;9.13;;;;;;;;;;5074375;28;20205;-79
2022/03/20 14:59:51;;;;;;;10.88;9.80;;;;;;;;;;5074845;28;20204;-80
2022/03/20 15:02:19;;;;;;;10.90;9.68;;;;;;;;;;5074846;28;20235;-79
2022/03/20 15:04:49;;;;;;;10.30;9.30;;;;;;;;;;5074779;28;20235;-78
2022/03/20 15:07:18;;;;;;;14.40;11.82;;;;;;;;;;5074542;28;20208;-79
2022/03/20 15:12:30;;;;;;;11.05;9.50;;;;;;;;;;5075690;28;20335;-80
2022/03/20 15:15:00;;;;;;;9.10;8.20;;;;;;;;;;5075182;28;20227;-79
2022/03/20 15:17:27;;;;;;;8.98;8.07;;;;;;;;;;5068296;28;20254;-79
2022/03/20 15:19:55;;;;;;;11.32;10.10;;;;;;;;;;5075421;28;20212;-78
2022/03/20 15:22:23;;;;;;;11.32;9.85;;;;;;;;;;5075017;28;20278;-80
2022/03/20 15:24:51;;;;;;;11.02;9.93;;;;;;;;;;5076368;28;20231;-79
2022/03/20 15:27:19;;;;;;;13.20;11.68;;;;;;;;;;5077410;28;20565;-79
2022/03/20 15:29:46;;;;;;;12.15;10.95;;;;;;;;;;5073545;28;20209;-79
2022/03/20 15:32:14;;;;;;;12.73;11.43;;;;;;;;;;5067905;28;20237;-79